ZSPD METAR and TAF | Updated Today

ZSPD METAR

Shanghai Pudong International Airport

Observation time: 29 min. ago

ZSPD 291930Z 12003MPS 9999 BKN040 22/20 Q1014 NOSIG

Need help? Read our tutorial on how to read METARs or read the parsed version below.

Shanghai Pudong International Airport (ZSPD) METAR

  • Weather conditions on Thu, 29 Sep 2022 19:30:00 +0000 (29 min. ago):
  • Present conditions: Dry
  • Clouds: Broken sky at 1219 meters
  • Visibility: Greater than 10 km
  • Wind: 120 degrees at 3 knots
  • Temperature: 22 celsius
  • Dew point: 20 celsius
  • Pressure: 1014 millibars
  • Remarks: None


Useful to know...

ZSPD TAF

Shanghai Pudong International Airport

TAF ZSPD 291506Z 2918/3018 12004MPS 6000 BKN020 TX27/3006Z TN21/2921Z
Observation time: 4:53 hr. ago
Need help? Read our tutorial on how to read TAFs or read the parsed version below.

Parsed version of TAF for Shanghai Pudong International Airport (ZSPD)

  • From 29 September at 18:00 UTC, to day 30 of the month at 18:00 UTC
  • Clouds: Broken sky at 610 meters
  • Visibility: 6000 meters
  • Wind: 120 degrees at 4